sensor_id;sensor_type;location;lat;lon;timestamp;temperature;humidity
65064;DHT22;51654;51.452;6.644;2023-06-14T00:02:25;20.60;39.60
65064;DHT22;51654;51.452;6.644;2023-06-14T00:04:52;20.50;39.20
65064;DHT22;51654;51.452;6.644;2023-06-14T00:07:20;20.50;38.90
65064;DHT22;51654;51.452;6.644;2023-06-14T00:09:50;20.40;39.00
65064;DHT22;51654;51.452;6.644;2023-06-14T00:12:17;20.40;38.80
65064;DHT22;51654;51.452;6.644;2023-06-14T00:14:44;20.30;38.90
65064;DHT22;51654;51.452;6.644;2023-06-14T00:17:11;20.30;39.00
65064;DHT22;51654;51.452;6.644;2023-06-14T00:19:38;20.30;38.90
65064;DHT22;51654;51.452;6.644;2023-06-14T00:22:05;20.20;38.80
65064;DHT22;51654;51.452;6.644;2023-06-14T00:24:32;20.20;39.10
65064;DHT22;51654;51.452;6.644;2023-06-14T00:26:58;20.20;39.20
65064;DHT22;51654;51.452;6.644;2023-06-14T00:29:25;20.20;39.40
65064;DHT22;51654;51.452;6.644;2023-06-14T00:31:52;20.20;39.30
65064;DHT22;51654;51.452;6.644;2023-06-14T00:34:19;20.10;39.10
65064;DHT22;51654;51.452;6.644;2023-06-14T00:36:46;20.00;39.10
65064;DHT22;51654;51.452;6.644;2023-06-14T00:39:13;20.00;39.20
65064;DHT22;51654;51.452;6.644;2023-06-14T00:41:40;20.00;39.30
65064;DHT22;51654;51.452;6.644;2023-06-14T00:44:07;19.90;39.50
65064;DHT22;51654;51.452;6.644;2023-06-14T00:46:34;19.90;39.60
65064;DHT22;51654;51.452;6.644;2023-06-14T00:49:01;19.90;39.70
65064;DHT22;51654;51.452;6.644;2023-06-14T00:51:28;19.90;39.80
65064;DHT22;51654;51.452;6.644;2023-06-14T00:53:55;19.90;40.00
65064;DHT22;51654;51.452;6.644;2023-06-14T00:56:21;19.90;39.80
65064;DHT22;51654;51.452;6.644;2023-06-14T00:58:50;19.80;39.90
65064;DHT22;51654;51.452;6.644;2023-06-14T01:01:17;19.80;40.00
65064;DHT22;51654;51.452;6.644;2023-06-14T01:03:44;19.80;40.10
65064;DHT22;51654;51.452;6.644;2023-06-14T01:06:20;19.80;39.90
65064;DHT22;51654;51.452;6.644;2023-06-14T01:11:41;19.70;39.90
65064;DHT22;51654;51.452;6.644;2023-06-14T01:14:11;19.70;39.90
65064;DHT22;51654;51.452;6.644;2023-06-14T01:16:39;19.60;39.60
65064;DHT22;51654;51.452;6.644;2023-06-14T01:19:07;19.50;39.70
65064;DHT22;51654;51.452;6.644;2023-06-14T01:21:40;19.50;39.80
65064;DHT22;51654;51.452;6.644;2023-06-14T01:24:09;19.50;40.00
65064;DHT22;51654;51.452;6.644;2023-06-14T01:26:35;19.50;39.90
65064;DHT22;51654;51.452;6.644;2023-06-14T01:29:04;19.50;40.10
65064;DHT22;51654;51.452;6.644;2023-06-14T01:31:31;19.50;40.20
65064;DHT22;51654;51.452;6.644;2023-06-14T01:34:08;19.50;40.10
65064;DHT22;51654;51.452;6.644;2023-06-14T01:36:35;19.50;39.70
65064;DHT22;51654;51.452;6.644;2023-06-14T01:39:03;19.50;39.80
65064;DHT22;51654;51.452;6.644;2023-06-14T01:41:30;19.50;40.10
65064;DHT22;51654;51.452;6.644;2023-06-14T01:43:58;19.50;40.20
65064;DHT22;51654;51.452;6.644;2023-06-14T01:46:25;19.50;39.50
65064;DHT22;51654;51.452;6.644;2023-06-14T01:48:53;19.50;39.90
65064;DHT22;51654;51.452;6.644;2023-06-14T01:51:20;19.50;40.00
65064;DHT22;51654;51.452;6.644;2023-06-14T01:53:47;19.50;39.90
65064;DHT22;51654;51.452;6.644;2023-06-14T01:56:15;19.50;40.10
65064;DHT22;51654;51.452;6.644;2023-06-14T01:58:42;19.50;40.30
65064;DHT22;51654;51.452;6.644;2023-06-14T02:01:10;19.60;40.00
65064;DHT22;51654;51.452;6.644;2023-06-14T02:03:38;19.50;39.90
65064;DHT22;51654;51.452;6.644;2023-06-14T02:06:05;19.50;40.00
65064;DHT22;51654;51.452;6.644;2023-06-14T02:08:32;19.50;40.30
65064;DHT22;51654;51.452;6.644;2023-06-14T02:11:00;19.50;40.20
65064;DHT22;51654;51.452;6.644;2023-06-14T02:13:27;19.50;40.20
65064;DHT22;51654;51.452;6.644;2023-06-14T02:15:53;19.40;40.40
65064;DHT22;51654;51.452;6.644;2023-06-14T02:18:22;19.40;40.50
65064;DHT22;51654;51.452;6.644;2023-06-14T02:20:49;19.40;40.60
65064;DHT22;51654;51.452;6.644;2023-06-14T02:23:16;19.40;40.70
65064;DHT22;51654;51.452;6.644;2023-06-14T02:25:43;19.50;40.30
65064;DHT22;51654;51.452;6.644;2023-06-14T02:28:11;19.40;40.20
65064;DHT22;51654;51.452;6.644;2023-06-14T02:30:38;19.30;40.40
65064;DHT22;51654;51.452;6.644;2023-06-14T02:33:05;19.20;40.50
65064;DHT22;51654;51.452;6.644;2023-06-14T02:35:32;19.20;40.30
65064;DHT22;51654;51.452;6.644;2023-06-14T02:37:59;19.00;40.40
65064;DHT22;51654;51.452;6.644;2023-06-14T02:40:27;19.00;40.30
65064;DHT22;51654;51.452;6.644;2023-06-14T02:42:56;19.00;40.40
65064;DHT22;51654;51.452;6.644;2023-06-14T02:45:23;19.00;40.40
65064;DHT22;51654;51.452;6.644;2023-06-14T02:47:49;18.90;40.30
65064;DHT22;51654;51.452;6.644;2023-06-14T02:50:17;18.80;40.40
65064;DHT22;51654;51.452;6.644;2023-06-14T02:52:44;18.80;40.40
65064;DHT22;51654;51.452;6.644;2023-06-14T02:55:12;18.70;40.40
65064;DHT22;51654;51.452;6.644;2023-06-14T02:57:39;18.70;40.60
65064;DHT22;51654;51.452;6.644;2023-06-14T03:00:08;18.70;40.40
65064;DHT22;51654;51.452;6.644;2023-06-14T03:02:37;18.60;40.50
65064;DHT22;51654;51.452;6.644;2023-06-14T03:05:04;18.50;40.80
65064;DHT22;51654;51.452;6.644;2023-06-14T03:07:34;18.60;41.10
65064;DHT22;51654;51.452;6.644;2023-06-14T03:10:03;18.60;41.20
65064;DHT22;51654;51.452;6.644;2023-06-14T03:12:30;18.60;41.20
65064;DHT22;51654;51.452;6.644;2023-06-14T03:14:57;18.50;41.10
65064;DHT22;51654;51.452;6.644;2023-06-14T03:17:31;18.50;41.10
65064;DHT22;51654;51.452;6.644;2023-06-14T03:20:02;18.40;41.30
65064;DHT22;51654;51.452;6.644;2023-06-14T03:22:29;18.40;41.10
65064;DHT22;51654;51.452;6.644;2023-06-14T03:24:58;18.30;41.20
65064;DHT22;51654;51.452;6.644;2023-06-14T03:27:28;18.30;41.40
65064;DHT22;51654;51.452;6.644;2023-06-14T03:29:55;18.40;41.50
65064;DHT22;51654;51.452;6.644;2023-06-14T03:32:22;18.40;41.70
65064;DHT22;51654;51.452;6.644;2023-06-14T03:34:49;18.40;41.70
65064;DHT22;51654;51.452;6.644;2023-06-14T03:37:21;18.40;41.60
65064;DHT22;51654;51.452;6.644;2023-06-14T03:39:48;18.40;41.50
65064;DHT22;51654;51.452;6.644;2023-06-14T03:42:19;18.40;41.30
65064;DHT22;51654;51.452;6.644;2023-06-14T03:44:47;18.30;41.50
65064;DHT22;51654;51.452;6.644;2023-06-14T03:47:14;18.30;41.60
65064;DHT22;51654;51.452;6.644;2023-06-14T03:49:42;18.20;41.50
65064;DHT22;51654;51.452;6.644;2023-06-14T03:52:09;18.20;41.50
65064;DHT22;51654;51.452;6.644;2023-06-14T03:54:38;18.10;41.50
65064;DHT22;51654;51.452;6.644;2023-06-14T03:57:10;18.10;41.50
65064;DHT22;51654;51.452;6.644;2023-06-14T03:59:37;18.10;41.60
65064;DHT22;51654;51.452;6.644;2023-06-14T04:02:04;18.00;41.40
65064;DHT22;51654;51.452;6.644;2023-06-14T04:04:32;18.00;41.50
65064;DHT22;51654;51.452;6.644;2023-06-14T04:06:59;18.00;41.60
65064;DHT22;51654;51.452;6.644;2023-06-14T04:09:27;18.00;41.50
65064;DHT22;51654;51.452;6.644;2023-06-14T04:11:54;18.00;41.40
65064;DHT22;51654;51.452;6.644;2023-06-14T04:14:23;18.00;41.50
65064;DHT22;51654;51.452;6.644;2023-06-14T04:16:50;18.10;41.70
65064;DHT22;51654;51.452;6.644;2023-06-14T04:19:18;18.10;41.50
65064;DHT22;51654;51.452;6.644;2023-06-14T04:21:45;18.20;41.30
65064;DHT22;51654;51.452;6.644;2023-06-14T04:24:14;18.30;41.20
65064;DHT22;51654;51.452;6.644;2023-06-14T04:26:44;18.40;40.90
65064;DHT22;51654;51.452;6.644;2023-06-14T04:29:13;18.50;40.80
65064;DHT22;51654;51.452;6.644;2023-06-14T04:31:42;18.60;40.70
65064;DHT22;51654;51.452;6.644;2023-06-14T04:34:10;18.70;40.50
65064;DHT22;51654;51.452;6.644;2023-06-14T04:36:47;18.90;40.40
65064;DHT22;51654;51.452;6.644;2023-06-14T04:39:22;19.10;40.20
65064;DHT22;51654;51.452;6.644;2023-06-14T04:41:49;19.20;39.90
65064;DHT22;51654;51.452;6.644;2023-06-14T04:44:23;19.30;39.70
65064;DHT22;51654;51.452;6.644;2023-06-14T04:46:57;19.40;39.20
65064;DHT22;51654;51.452;6.644;2023-06-14T04:49:25;19.50;39.00
65064;DHT22;51654;51.452;6.644;2023-06-14T04:51:56;19.50;39.10
65064;DHT22;51654;51.452;6.644;2023-06-14T04:54:28;19.70;38.90
65064;DHT22;51654;51.452;6.644;2023-06-14T04:56:59;19.80;38.90
65064;DHT22;51654;51.452;6.644;2023-06-14T04:59:27;19.90;38.80
65064;DHT22;51654;51.452;6.644;2023-06-14T05:01:54;20.00;38.70
65064;DHT22;51654;51.452;6.644;2023-06-14T05:04:23;20.30;38.50
65064;DHT22;51654;51.452;6.644;2023-06-14T05:06:52;20.40;38.00
65064;DHT22;51654;51.452;6.644;2023-06-14T05:09:21;20.40;38.00
65064;DHT22;51654;51.452;6.644;2023-06-14T05:11:50;20.50;38.00
65064;DHT22;51654;51.452;6.644;2023-06-14T05:14:17;20.70;37.70
65064;DHT22;51654;51.452;6.644;2023-06-14T05:16:45;20.80;37.70
65064;DHT22;51654;51.452;6.644;2023-06-14T05:19:12;21.00;37.40
65064;DHT22;51654;51.452;6.644;2023-06-14T05:21:39;21.20;37.20
65064;DHT22;51654;51.452;6.644;2023-06-14T05:24:09;21.40;36.80
65064;DHT22;51654;51.452;6.644;2023-06-14T05:26:36;21.50;36.20
65064;DHT22;51654;51.452;6.644;2023-06-14T05:29:03;21.60;35.90
65064;DHT22;51654;51.452;6.644;2023-06-14T05:31:30;21.70;36.00
65064;DHT22;51654;51.452;6.644;2023-06-14T05:33:57;21.90;35.90
65064;DHT22;51654;51.452;6.644;2023-06-14T05:36:24;22.00;35.70
65064;DHT22;51654;51.452;6.644;2023-06-14T05:38:52;22.20;35.60
65064;DHT22;51654;51.452;6.644;2023-06-14T05:41:25;22.50;35.50
65064;DHT22;51654;51.452;6.644;2023-06-14T05:43:54;22.70;34.90
65064;DHT22;51654;51.452;6.644;2023-06-14T05:46:21;22.80;34.50
65064;DHT22;51654;51.452;6.644;2023-06-14T05:48:51;23.00;34.30
65064;DHT22;51654;51.452;6.644;2023-06-14T05:51:18;23.10;34.30
65064;DHT22;51654;51.452;6.644;2023-06-14T05:53:48;23.40;33.80
65064;DHT22;51654;51.452;6.644;2023-06-14T05:56:15;23.50;33.90
